createdAt,value
2019-03-24T00:00:08.034Z,1023.27
2019-03-24T00:01:08.023Z,1023.25
2019-03-24T00:02:08.007Z,1023.27
2019-03-24T00:03:08.002Z,1023.25
2019-03-24T00:04:08.009Z,1023.28
2019-03-24T00:05:07.976Z,1023.30
2019-03-24T00:06:07.967Z,1023.23
2019-03-24T00:07:07.954Z,1023.25
2019-03-24T00:08:07.943Z,1023.27
2019-03-24T00:09:07.933Z,1023.26
2019-03-24T00:10:07.933Z,1023.27
2019-03-24T00:11:07.916Z,1023.26
2019-03-24T00:12:07.903Z,1023.26
2019-03-24T00:13:07.895Z,1023.30
2019-03-24T00:14:07.880Z,1023.27
2019-03-24T00:15:07.919Z,1023.29
2019-03-24T00:16:07.864Z,1023.26
2019-03-24T00:17:07.852Z,1023.27
2019-03-24T00:18:07.843Z,1023.27
2019-03-24T00:19:07.830Z,1023.27
2019-03-24T00:20:10.134Z,1023.31
2019-03-24T00:21:07.814Z,1023.30
2019-03-24T00:22:07.805Z,1023.26
2019-03-24T00:23:07.786Z,1023.29
2019-03-24T00:24:07.776Z,1023.35
2019-03-24T00:25:07.772Z,1023.31
2019-03-24T00:26:07.762Z,1023.33
2019-03-24T00:27:07.744Z,1023.32
2019-03-24T00:28:07.736Z,1023.36
2019-03-24T00:29:07.722Z,1023.34
2019-03-24T00:30:07.715Z,1023.35
2019-03-24T00:31:07.710Z,1023.32
2019-03-24T00:32:07.689Z,1023.35
2019-03-24T00:33:07.682Z,1023.39
2019-03-24T00:34:07.667Z,1023.36
2019-03-24T00:35:07.662Z,1023.40
2019-03-24T00:36:07.687Z,1023.34
2019-03-24T00:37:07.637Z,1023.38
2019-03-24T00:38:07.632Z,1023.34
2019-03-24T00:39:07.621Z,1023.40
2019-03-24T00:40:07.612Z,1023.41
2019-03-24T00:41:07.598Z,1023.35
2019-03-24T00:42:07.596Z,1023.40
2019-03-24T00:43:07.577Z,1023.36
2019-03-24T00:44:07.564Z,1023.41
2019-03-24T00:45:07.550Z,1023.36
2019-03-24T00:46:07.540Z,1023.37
2019-03-24T00:47:07.544Z,1023.35
2019-03-24T00:48:07.523Z,1023.32
2019-03-24T00:49:07.513Z,1023.32
2019-03-24T00:50:07.503Z,1023.35
2019-03-24T00:51:07.495Z,1023.32
2019-03-24T00:52:07.505Z,1023.31
2019-03-24T00:53:07.476Z,1023.28
2019-03-24T00:54:07.458Z,1023.33
2019-03-24T00:55:07.443Z,1023.31
2019-03-24T00:56:07.435Z,1023.33
2019-03-24T00:57:07.427Z,1023.33
2019-03-24T00:58:07.441Z,1023.29
2019-03-24T00:59:07.406Z,1023.35
2019-03-24T01:00:07.396Z,1023.33
2019-03-24T01:01:07.380Z,1023.33
2019-03-24T01:02:07.371Z,1023.32
2019-03-24T01:03:07.364Z,1023.33
2019-03-24T01:04:07.356Z,1023.27
2019-03-24T01:05:14.405Z,1023.32
2019-03-24T01:06:07.326Z,1023.33
2019-03-24T01:07:07.323Z,1023.30
2019-03-24T01:08:07.306Z,1023.30
2019-03-24T01:09:07.303Z,1023.32
2019-03-24T01:10:07.294Z,1023.33
2019-03-24T01:11:07.272Z,1023.33
2019-03-24T01:12:07.262Z,1023.32
2019-03-24T01:13:07.253Z,1023.34
2019-03-24T01:14:07.261Z,1023.31
2019-03-24T01:15:07.238Z,1023.34
2019-03-24T01:16:07.220Z,1023.28
2019-03-24T01:17:07.209Z,1023.27
2019-03-24T01:18:07.199Z,1023.30
2019-03-24T01:19:07.194Z,1023.28
2019-03-24T01:20:07.200Z,1023.24
2019-03-24T01:21:07.175Z,1023.25
2019-03-24T01:22:07.155Z,1023.25
2019-03-24T01:23:07.145Z,1023.25
2019-03-24T01:24:07.137Z,1023.22
2019-03-24T01:25:07.138Z,1023.26
2019-03-24T01:26:07.111Z,1023.19
2019-03-24T01:27:07.113Z,1023.30
2019-03-24T01:28:07.100Z,1023.26
2019-03-24T01:29:07.083Z,1023.24
2019-03-24T01:30:07.197Z,1023.25
2019-03-24T01:31:07.070Z,1023.24
2019-03-24T01:32:07.046Z,1023.23
2019-03-24T01:33:07.042Z,1023.24
2019-03-24T01:34:07.032Z,1023.22
2019-03-24T01:35:07.021Z,1023.21
2019-03-24T01:36:07.014Z,1023.21
2019-03-24T01:37:07.001Z,1023.20
2019-03-24T01:38:06.984Z,1023.18
2019-03-24T01:39:06.977Z,1023.21
2019-03-24T01:40:06.965Z,1023.15
2019-03-24T01:41:08.072Z,1023.16
2019-03-24T01:42:06.947Z,1023.16
2019-03-24T01:43:06.935Z,1023.12
2019-03-24T01:44:06.923Z,1023.11
2019-03-24T01:45:06.915Z,1023.07
2019-03-24T01:46:06.937Z,1023.11
2019-03-24T01:47:06.892Z,1023.07
2019-03-24T01:48:06.881Z,1023.10
2019-03-24T01:49:06.870Z,1023.09
2019-03-24T01:50:06.863Z,1023.11
2019-03-24T01:51:06.846Z,1023.13
2019-03-24T01:52:13.913Z,1023.11
2019-03-24T01:53:14.772Z,1023.09
2019-03-24T01:54:15.789Z,1023.14
2019-03-24T01:55:14.819Z,1023.13
2019-03-24T01:56:06.789Z,1023.11
2019-03-24T01:57:14.863Z,1023.12
2019-03-24T01:58:06.773Z,1023.10
2019-03-24T01:59:14.376Z,1023.14
2019-03-24T02:00:15.399Z,1023.13
2019-03-24T02:01:06.742Z,1023.11
2019-03-24T02:02:06.731Z,1023.14
2019-03-24T02:03:06.729Z,1023.13
2019-03-24T02:04:06.711Z,1023.12
2019-03-24T02:05:06.695Z,1023.11
2019-03-24T02:06:06.689Z,1023.10
2019-03-24T02:07:06.683Z,1023.10
2019-03-24T02:08:06.675Z,1023.09
2019-03-24T02:09:06.656Z,1023.10
2019-03-24T02:10:06.669Z,1023.06
2019-03-24T02:11:06.636Z,1023.06
2019-03-24T02:13:23.697Z,1023.05
2019-03-24T02:14:31.396Z,1023.03
2019-03-24T02:15:32.415Z,1023.05
2019-03-24T02:16:31.445Z,1023.06
2019-03-24T02:17:31.467Z,1023.05
2019-03-24T02:18:30.992Z,1023.06
2019-03-24T02:19:31.503Z,1023.07
2019-03-24T02:20:23.601Z,1023.03
2019-03-24T02:21:23.586Z,1023.07
2019-03-24T02:22:23.603Z,1023.00
2019-03-24T02:23:23.574Z,1023.03
2019-03-24T02:24:23.553Z,1022.97
2019-03-24T02:25:23.545Z,1022.97
2019-03-24T02:26:23.533Z,1022.98
2019-03-24T02:27:23.526Z,1022.99
2019-03-24T02:28:23.534Z,1022.99
2019-03-24T02:29:23.499Z,1022.98
2019-03-24T02:30:23.516Z,1022.94
2019-03-24T02:31:23.486Z,1022.97
2019-03-24T02:32:23.472Z,1022.96
2019-03-24T02:33:23.512Z,1022.99
2019-03-24T02:34:23.447Z,1022.98
2019-03-24T02:35:23.443Z,1023.00
2019-03-24T02:36:23.449Z,1023.02
2019-03-24T02:37:23.422Z,1023.02
2019-03-24T02:38:23.413Z,1022.98
2019-03-24T02:39:23.443Z,1022.96
2019-03-24T02:40:23.389Z,1022.99
2019-03-24T02:41:23.377Z,1022.95
2019-03-24T02:42:23.368Z,1022.98
2019-03-24T02:43:23.357Z,1022.94
2019-03-24T02:44:23.342Z,1022.96
2019-03-24T02:45:23.343Z,1022.92
2019-03-24T02:46:24.918Z,1022.96
2019-03-24T02:47:23.312Z,1022.94
2019-03-24T02:48:23.307Z,1022.94
2019-03-24T02:49:23.293Z,1022.90
2019-03-24T02:50:23.284Z,1022.91
2019-03-24T02:51:23.291Z,1022.90
2019-03-24T02:52:23.257Z,1022.85
2019-03-24T02:53:23.263Z,1022.83
2019-03-24T02:54:23.240Z,1022.85
2019-03-24T02:55:23.229Z,1022.86
2019-03-24T02:56:23.217Z,1022.85
2019-03-24T02:57:23.223Z,1022.81
2019-03-24T02:58:23.195Z,1022.85
2019-03-24T02:59:23.222Z,1022.85
2019-03-24T03:00:23.171Z,1022.85
2019-03-24T03:01:23.165Z,1022.84
2019-03-24T03:02:23.160Z,1022.90
2019-03-24T03:03:23.159Z,1022.93
2019-03-24T03:04:23.134Z,1022.93
2019-03-24T03:05:23.117Z,1022.92
2019-03-24T03:06:23.108Z,1022.91
2019-03-24T03:07:23.098Z,1022.94
2019-03-24T03:08:23.093Z,1022.94
2019-03-24T03:09:23.106Z,1022.96
2019-03-24T03:10:23.064Z,1022.94
2019-03-24T03:11:23.070Z,1022.99
2019-03-24T03:12:23.047Z,1022.95
2019-03-24T03:13:23.037Z,1022.95
2019-03-24T03:14:23.030Z,1022.95
2019-03-24T03:15:23.009Z,1022.92
2019-03-24T03:16:37.553Z,1022.94
2019-03-24T03:17:23.993Z,1022.91
2019-03-24T03:18:22.979Z,1022.90
2019-03-24T03:19:23.000Z,1022.91
2019-03-24T03:20:22.969Z,1022.92
2019-03-24T03:21:22.945Z,1022.94
2019-03-24T03:22:22.944Z,1022.91
2019-03-24T03:23:22.925Z,1022.90
2019-03-24T03:24:22.912Z,1022.92
2019-03-24T03:25:22.938Z,1022.87
2019-03-24T03:26:22.891Z,1022.90
2019-03-24T03:27:22.884Z,1022.88
2019-03-24T03:28:22.883Z,1022.90
2019-03-24T03:29:22.862Z,1022.91
2019-03-24T03:30:22.858Z,1022.84
2019-03-24T03:31:22.850Z,1022.89
2019-03-24T03:32:22.836Z,1022.87
2019-03-24T03:33:22.893Z,1022.88
2019-03-24T03:34:22.814Z,1022.85
2019-03-24T03:35:22.814Z,1022.86
2019-03-24T03:36:22.819Z,1022.82
2019-03-24T03:37:22.791Z,1022.82
2019-03-24T03:38:22.763Z,1022.85
2019-03-24T03:39:22.779Z,1022.86
2019-03-24T03:40:22.741Z,1022.81
2019-03-24T03:41:22.743Z,1022.82
2019-03-24T03:42:22.764Z,1022.80
2019-03-24T03:43:22.722Z,1022.79
2019-03-24T03:44:22.701Z,1022.82
2019-03-24T03:45:22.687Z,1022.82
2019-03-24T03:46:22.691Z,1022.83
2019-03-24T03:47:22.670Z,1022.82
2019-03-24T03:48:22.666Z,1022.85
2019-03-24T03:49:22.648Z,1022.80
2019-03-24T03:50:22.635Z,1022.82
2019-03-24T03:51:22.634Z,1022.81
2019-03-24T03:52:22.630Z,1022.78
2019-03-24T03:53:22.605Z,1022.79
2019-03-24T03:54:22.600Z,1022.78
2019-03-24T03:55:22.580Z,1022.74
2019-03-24T03:56:22.583Z,1022.75
2019-03-24T03:57:22.561Z,1022.77
2019-03-24T03:58:22.550Z,1022.80
2019-03-24T03:59:22.548Z,1022.77
2019-03-24T04:00:22.541Z,1022.81
2019-03-24T04:01:22.519Z,1022.75
2019-03-24T04:02:22.519Z,1022.74
2019-03-24T04:03:22.513Z,1022.72
2019-03-24T04:04:22.504Z,1022.66
2019-03-24T04:05:22.480Z,1022.68
2019-03-24T04:06:22.468Z,1022.65
2019-03-24T04:07:22.454Z,1022.68
2019-03-24T04:08:22.443Z,1022.63
2019-03-24T04:09:22.439Z,1022.60
2019-03-24T04:10:22.431Z,1022.62
2019-03-24T04:11:22.413Z,1022.57
2019-03-24T04:12:22.409Z,1022.61
2019-03-24T04:13:22.397Z,1022.60
2019-03-24T04:14:22.393Z,1022.59
2019-03-24T04:15:22.373Z,1022.61
2019-03-24T04:16:22.374Z,1022.58
2019-03-24T04:17:22.358Z,1022.63
2019-03-24T04:18:22.355Z,1022.60
2019-03-24T04:19:22.333Z,1022.67
2019-03-24T04:20:22.321Z,1022.61
2019-03-24T04:21:22.326Z,1022.63
2019-03-24T04:22:22.303Z,1022.61
2019-03-24T04:23:22.293Z,1022.60
2019-03-24T04:24:22.304Z,1022.61
2019-03-24T04:25:22.272Z,1022.59
2019-03-24T04:26:22.260Z,1022.57
2019-03-24T04:27:22.266Z,1022.60
2019-03-24T04:28:22.235Z,1022.59
2019-03-24T04:29:22.232Z,1022.60
2019-03-24T04:30:22.244Z,1022.57
2019-03-24T04:31:22.202Z,1022.55
2019-03-24T04:32:22.202Z,1022.52
2019-03-24T04:33:22.181Z,1022.53
2019-03-24T04:34:22.170Z,1022.52
2019-03-24T04:35:22.160Z,1022.52
2019-03-24T04:36:22.167Z,1022.55
2019-03-24T04:37:22.150Z,1022.59
2019-03-24T04:38:22.133Z,1022.57
2019-03-24T04:39:22.118Z,1022.62
2019-03-24T04:40:22.112Z,1022.59
2019-03-24T04:41:22.142Z,1022.60
2019-03-24T04:42:22.090Z,1022.59
2019-03-24T04:43:22.080Z,1022.62
2019-03-24T04:44:22.071Z,1022.61
2019-03-24T04:45:22.054Z,1022.59
2019-03-24T04:46:22.049Z,1022.65
2019-03-24T04:47:22.049Z,1022.62
2019-03-24T04:48:22.025Z,1022.63
2019-03-24T04:49:22.012Z,1022.69
2019-03-24T04:50:22.000Z,1022.65
2019-03-24T04:51:21.998Z,1022.64
2019-03-24T04:52:21.989Z,1022.65
2019-03-24T04:53:21.983Z,1022.66
2019-03-24T04:54:21.958Z,1022.66
2019-03-24T04:55:21.960Z,1022.66
2019-03-24T04:56:21.938Z,1022.61
2019-03-24T04:57:21.927Z,1022.64
2019-03-24T04:58:21.915Z,1022.62
2019-03-24T04:59:21.914Z,1022.59
2019-03-24T05:00:21.896Z,1022.58
2019-03-24T05:01:21.924Z,1022.53
2019-03-24T05:02:21.875Z,1022.53
2019-03-24T05:03:21.873Z,1022.51
2019-03-24T05:04:21.860Z,1022.51
2019-03-24T05:05:21.851Z,1022.41
2019-03-24T05:06:21.831Z,1022.46
2019-03-24T05:07:21.862Z,1022.44
2019-03-24T05:08:21.816Z,1022.40
2019-03-24T05:09:21.810Z,1022.43
2019-03-24T05:10:21.808Z,1022.41
2019-03-24T05:11:21.780Z,1022.39
2019-03-24T05:12:21.769Z,1022.44
2019-03-24T05:13:21.775Z,1022.47
2019-03-24T05:14:21.753Z,1022.46
2019-03-24T05:15:21.745Z,1022.46
2019-03-24T05:16:21.738Z,1022.46
2019-03-24T05:17:26.944Z,1022.43
2019-03-24T05:18:22.712Z,1022.45
2019-03-24T05:19:21.701Z,1022.46
2019-03-24T05:20:21.688Z,1022.47
2019-03-24T05:21:21.711Z,1022.47
2019-03-24T05:22:21.675Z,1022.50
2019-03-24T05:23:21.667Z,1022.47
2019-03-24T05:24:21.643Z,1022.48
2019-03-24T05:25:23.680Z,1022.45
2019-03-24T05:26:21.628Z,1022.53
2019-03-24T05:27:21.633Z,1022.50
2019-03-24T05:28:21.615Z,1022.50
2019-03-24T05:29:21.592Z,1022.47
2019-03-24T05:30:21.583Z,1022.46
2019-03-24T05:31:21.576Z,1022.45
2019-03-24T05:32:21.565Z,1022.45
2019-03-24T05:33:21.569Z,1022.40
2019-03-24T05:34:21.543Z,1022.39
2019-03-24T05:35:21.527Z,1022.43
2019-03-24T05:36:21.519Z,1022.46
2019-03-24T05:37:21.511Z,1022.41
2019-03-24T05:38:21.505Z,1022.37
2019-03-24T05:39:21.494Z,1022.37
2019-03-24T05:40:21.478Z,1022.38
2019-03-24T05:41:21.465Z,1022.33
2019-03-24T05:42:21.458Z,1022.36
2019-03-24T05:43:21.458Z,1022.34
2019-03-24T05:44:21.441Z,1022.38
2019-03-24T05:45:21.430Z,1022.39
2019-03-24T05:46:21.415Z,1022.38
2019-03-24T05:47:21.405Z,1022.37
2019-03-24T05:48:21.395Z,1022.34
2019-03-24T05:49:21.422Z,1022.34
2019-03-24T05:50:21.381Z,1022.35
2019-03-24T05:51:21.361Z,1022.35
2019-03-24T05:52:21.354Z,1022.33
2019-03-24T05:53:21.336Z,1022.40
2019-03-24T05:54:21.331Z,1022.38
2019-03-24T05:55:21.355Z,1022.44
2019-03-24T05:56:21.305Z,1022.39
2019-03-24T05:57:21.305Z,1022.43
2019-03-24T05:58:21.282Z,1022.42
2019-03-24T05:59:21.277Z,1022.38
2019-03-24T06:00:21.260Z,1022.46
2019-03-24T06:01:21.264Z,1022.43
2019-03-24T06:02:21.243Z,1022.47
2019-03-24T06:03:21.235Z,1022.46
2019-03-24T06:04:21.223Z,1022.43
2019-03-24T06:05:21.242Z,1022.42
2019-03-24T06:06:21.196Z,1022.44
2019-03-24T06:07:21.194Z,1022.42
2019-03-24T06:08:21.185Z,1022.39
2019-03-24T06:09:21.168Z,1022.33
2019-03-24T06:10:21.158Z,1022.39
2019-03-24T06:11:21.158Z,1022.32
2019-03-24T06:12:21.140Z,1022.34
2019-03-24T06:13:21.126Z,1022.34
2019-03-24T06:14:21.112Z,1022.36
2019-03-24T06:15:21.104Z,1022.38
2019-03-24T06:16:21.098Z,1022.36
2019-03-24T06:17:21.084Z,1022.39
2019-03-24T06:18:21.073Z,1022.32
2019-03-24T06:19:21.071Z,1022.32
2019-03-24T06:20:21.051Z,1022.28
2019-03-24T06:21:21.044Z,1022.26
2019-03-24T06:22:21.030Z,1022.24
2019-03-24T06:23:21.014Z,1022.24
2019-03-24T06:24:21.012Z,1022.23
2019-03-24T06:25:21.009Z,1022.24
2019-03-24T06:26:21.017Z,1022.19
2019-03-24T06:27:20.990Z,1022.11
2019-03-24T06:28:20.962Z,1022.15
2019-03-24T06:29:20.956Z,1022.18
2019-03-24T06:30:20.952Z,1022.14
2019-03-24T06:31:20.929Z,1022.19
2019-03-24T06:32:20.963Z,1022.21
2019-03-24T06:33:20.908Z,1022.11
2019-03-24T06:34:20.903Z,1022.16
2019-03-24T06:35:20.894Z,1022.19
2019-03-24T06:36:20.876Z,1022.19
2019-03-24T06:37:20.868Z,1022.18
2019-03-24T06:38:20.865Z,1022.18
2019-03-24T06:39:20.845Z,1022.19
2019-03-24T06:40:20.838Z,1022.20
2019-03-24T06:41:20.822Z,1022.18
2019-03-24T06:42:20.818Z,1022.19
2019-03-24T06:43:20.839Z,1022.19
2019-03-24T06:44:20.797Z,1022.15
2019-03-24T06:45:28.326Z,1022.17
2019-03-24T06:46:21.777Z,1022.21
2019-03-24T06:47:20.765Z,1022.15
2019-03-24T06:48:20.753Z,1022.19
2019-03-24T06:49:20.747Z,1022.12
2019-03-24T06:50:20.734Z,1022.15
2019-03-24T06:51:20.721Z,1022.13
2019-03-24T06:52:20.713Z,1022.13
2019-03-24T06:53:20.704Z,1022.05
2019-03-24T06:54:20.695Z,1022.10
2019-03-24T06:55:20.679Z,1022.10
2019-03-24T06:56:20.665Z,1022.05
2019-03-24T06:57:20.652Z,1022.01
2019-03-24T06:58:20.641Z,1022.02
2019-03-24T06:59:20.643Z,1022.05
2019-03-24T07:00:20.650Z,1022.02
2019-03-24T07:01:20.660Z,1022.00
2019-03-24T07:02:20.604Z,1022.01
2019-03-24T07:03:20.592Z,1022.05
2019-03-24T07:04:20.578Z,1022.03
2019-03-24T07:05:28.557Z,1022.01
2019-03-24T07:06:20.557Z,1022.01
2019-03-24T07:07:20.560Z,1022.04
2019-03-24T07:08:20.538Z,1022.01
2019-03-24T07:09:20.527Z,1022.02
2019-03-24T07:10:20.513Z,1021.98
2019-03-24T07:11:20.510Z,1021.98
2019-03-24T07:12:20.504Z,1021.95
2019-03-24T07:13:20.490Z,1021.98
2019-03-24T07:14:20.473Z,1021.96
2019-03-24T07:15:20.494Z,1021.93
2019-03-24T07:16:20.454Z,1021.93
2019-03-24T07:17:20.438Z,1021.98
2019-03-24T07:18:20.433Z,1021.99
2019-03-24T07:19:20.420Z,1022.01
2019-03-24T07:20:20.407Z,1021.96
2019-03-24T07:21:20.408Z,1021.96
2019-03-24T07:22:20.387Z,1021.89
2019-03-24T07:23:20.377Z,1021.91
2019-03-24T07:24:20.361Z,1021.85
2019-03-24T07:25:20.350Z,1021.91
2019-03-24T07:26:20.354Z,1021.90
2019-03-24T07:27:20.333Z,1021.89
2019-03-24T07:28:20.321Z,1021.86
2019-03-24T07:29:20.311Z,1021.88
2019-03-24T07:30:20.306Z,1021.90
2019-03-24T07:31:20.300Z,1021.89
2019-03-24T07:32:20.281Z,1021.89
2019-03-24T07:33:20.314Z,1021.85
2019-03-24T07:34:20.261Z,1021.90
2019-03-24T07:35:20.247Z,1021.88
2019-03-24T07:36:20.238Z,1021.86
2019-03-24T07:37:20.222Z,1021.88
2019-03-24T07:38:20.213Z,1021.88
2019-03-24T07:39:20.217Z,1021.85
2019-03-24T07:40:20.193Z,1021.81
2019-03-24T07:41:20.181Z,1021.85
2019-03-24T07:42:20.173Z,1021.81
2019-03-24T07:43:20.156Z,1021.86
2019-03-24T07:44:20.203Z,1021.97
2019-03-24T07:45:20.147Z,1021.92
2019-03-24T07:46:20.129Z,1021.93
2019-03-24T07:47:20.117Z,1021.92
2019-03-24T07:48:20.107Z,1021.88
2019-03-24T07:49:20.103Z,1021.92
2019-03-24T07:50:20.092Z,1021.91
2019-03-24T07:51:20.074Z,1021.91
2019-03-24T07:52:20.092Z,1021.90
2019-03-24T07:53:20.055Z,1021.93
2019-03-24T07:54:20.044Z,1021.90
2019-03-24T07:55:20.033Z,1021.86
2019-03-24T07:56:20.021Z,1021.94
2019-03-24T07:57:20.013Z,1021.88
2019-03-24T07:58:20.010Z,1021.83
2019-03-24T07:59:19.991Z,1021.91
2019-03-24T08:00:19.977Z,1021.88
2019-03-24T08:01:19.966Z,1021.87
2019-03-24T08:02:19.973Z,1021.89
2019-03-24T08:03:19.960Z,1021.91
2019-03-24T08:04:19.940Z,1021.95
2019-03-24T08:05:19.919Z,1021.89
2019-03-24T08:06:19.958Z,1021.93
2019-03-24T08:07:19.899Z,1021.91
2019-03-24T08:08:19.888Z,1021.89
2019-03-24T08:09:19.883Z,1021.97
2019-03-24T08:10:19.883Z,1021.91
2019-03-24T08:11:19.866Z,1021.93
2019-03-24T08:12:19.856Z,1021.90
2019-03-24T08:13:19.839Z,1021.91
2019-03-24T08:14:19.823Z,1021.87
2019-03-24T08:15:19.818Z,1021.81
2019-03-24T08:16:19.804Z,1021.85
2019-03-24T08:17:19.807Z,1021.82
2019-03-24T08:18:29.460Z,1021.90
2019-03-24T08:19:20.789Z,1021.73
2019-03-24T08:20:19.758Z,1021.69
2019-03-24T08:21:19.752Z,1021.72
2019-03-24T08:22:19.756Z,1021.73
2019-03-24T08:23:19.726Z,1021.72
2019-03-24T08:24:19.721Z,1021.75
2019-03-24T08:25:19.706Z,1021.71
2019-03-24T08:26:19.699Z,1021.72
2019-03-24T08:27:19.683Z,1021.68
2019-03-24T08:28:19.690Z,1021.63
2019-03-24T08:29:19.702Z,1021.62
2019-03-24T08:30:19.652Z,1021.65
2019-03-24T08:31:19.649Z,1021.58
2019-03-24T08:32:19.635Z,1021.58
2019-03-24T08:33:19.625Z,1021.56
2019-03-24T08:34:19.612Z,1021.61
2019-03-24T08:35:19.609Z,1021.54
2019-03-24T08:36:19.589Z,1021.51
2019-03-24T08:37:19.584Z,1021.49
2019-03-24T08:38:19.575Z,1021.51
2019-03-24T08:39:19.563Z,1021.46
2019-03-24T08:40:19.566Z,1021.53
2019-03-24T08:41:19.534Z,1021.48
2019-03-24T08:42:19.525Z,1021.45
2019-03-24T08:43:19.545Z,1021.43
2019-03-24T08:44:19.502Z,1021.37
2019-03-24T08:45:19.528Z,1021.41
2019-03-24T08:46:19.487Z,1021.37
2019-03-24T08:47:19.477Z,1021.32
2019-03-24T08:48:19.459Z,1021.24
2019-03-24T08:49:19.457Z,1021.23
2019-03-24T08:50:19.444Z,1021.25
2019-03-24T08:51:19.444Z,1021.26
2019-03-24T08:52:19.420Z,1021.26
2019-03-24T08:53:19.411Z,1021.26
2019-03-24T08:54:19.400Z,1021.24
2019-03-24T08:55:19.385Z,1021.26
2019-03-24T08:56:19.389Z,1021.24
2019-03-24T08:57:19.371Z,1021.20
2019-03-24T08:58:19.360Z,1021.23
2019-03-24T08:59:19.342Z,1021.22
2019-03-24T09:00:29.877Z,1021.18
2019-03-24T09:01:20.330Z,1021.23
2019-03-24T09:02:19.311Z,1021.20
2019-03-24T09:03:19.305Z,1021.15
2019-03-24T09:04:19.303Z,1021.04
2019-03-24T09:05:19.283Z,1021.14
2019-03-24T09:06:19.276Z,1021.07
2019-03-24T09:07:19.264Z,1021.02
2019-03-24T09:08:19.250Z,1021.23
2019-03-24T09:09:19.246Z,1021.10
2019-03-24T09:10:19.229Z,1021.18
2019-03-24T09:11:19.215Z,1021.17
2019-03-24T09:12:19.212Z,1021.18
2019-03-24T09:13:19.199Z,1021.04
2019-03-24T09:14:19.182Z,1021.15
2019-03-24T09:15:19.179Z,1021.11
2019-03-24T09:16:19.169Z,1020.88
2019-03-24T09:17:19.188Z,1021.01
2019-03-24T09:18:19.151Z,1020.94
2019-03-24T09:19:19.134Z,1020.81
2019-03-24T09:20:19.124Z,1020.82
2019-03-24T09:21:19.649Z,1020.81
2019-03-24T09:22:19.112Z,1020.94
2019-03-24T09:23:19.093Z,1020.80
2019-03-24T09:24:19.073Z,1020.82
2019-03-24T09:25:19.107Z,1020.80
2019-03-24T09:26:19.075Z,1020.80
2019-03-24T09:27:19.050Z,1020.91
2019-03-24T09:28:19.042Z,1020.78
2019-03-24T09:29:19.031Z,1020.81
2019-03-24T09:30:19.018Z,1020.74
2019-03-24T09:31:18.999Z,1020.70
2019-03-24T09:32:18.998Z,1020.80
2019-03-24T09:33:18.987Z,1020.69
2019-03-24T09:34:18.992Z,1020.84
2019-03-24T09:35:18.961Z,1020.61
2019-03-24T09:36:18.952Z,1020.67
2019-03-24T09:37:18.936Z,1020.63
2019-03-24T09:38:18.933Z,1020.63
2019-03-24T09:39:18.923Z,1020.60
2019-03-24T09:40:18.918Z,1020.67
2019-03-24T09:41:18.897Z,1020.62
2019-03-24T09:42:18.885Z,1020.74
2019-03-24T09:43:18.883Z,1020.62
2019-03-24T09:44:18.864Z,1020.56
2019-03-24T09:45:18.868Z,1020.74
2019-03-24T09:46:18.855Z,1020.53
2019-03-24T09:47:18.836Z,1020.55
2019-03-24T09:48:18.821Z,1020.62
2019-03-24T09:49:18.814Z,1020.59
2019-03-24T09:50:18.838Z,1020.67
2019-03-24T09:51:21.120Z,1020.60
2019-03-24T09:52:18.785Z,1020.62
2019-03-24T09:53:18.773Z,1020.65
2019-03-24T09:54:18.758Z,1020.60
2019-03-24T09:55:18.750Z,1020.62
2019-03-24T09:56:18.751Z,1020.64
2019-03-24T09:57:18.726Z,1020.62
2019-03-24T09:58:18.718Z,1020.58
2019-03-24T09:59:18.761Z,1020.48
2019-03-24T10:00:18.729Z,1020.54
2019-03-24T10:01:18.710Z,1020.56
2019-03-24T10:02:18.679Z,1020.52
2019-03-24T10:03:18.662Z,1020.47
2019-03-24T10:04:18.656Z,1020.48
2019-03-24T10:05:18.643Z,1020.48
2019-03-24T10:06:18.636Z,1020.49
2019-03-24T10:07:18.638Z,1020.47
2019-03-24T10:08:18.613Z,1020.47
2019-03-24T10:09:18.802Z,1020.46
2019-03-24T10:10:18.593Z,1020.46
2019-03-24T10:11:18.593Z,1020.48
2019-03-24T10:12:18.583Z,1020.46
2019-03-24T10:13:18.556Z,1020.51
2019-03-24T10:14:18.546Z,1020.39
2019-03-24T10:15:18.541Z,1020.38
2019-03-24T10:16:18.530Z,1020.42
2019-03-24T10:17:18.533Z,1020.40
2019-03-24T10:18:18.503Z,1020.39
2019-03-24T10:19:18.493Z,1020.39
2019-03-24T10:20:18.489Z,1020.36
2019-03-24T10:21:18.497Z,1020.34
2019-03-24T10:22:18.483Z,1020.29
2019-03-24T10:23:18.456Z,1020.42
2019-03-24T10:24:18.445Z,1020.37
2019-03-24T10:25:18.434Z,1020.31
2019-03-24T10:26:18.427Z,1020.27
2019-03-24T10:27:18.413Z,1020.29
2019-03-24T10:28:18.440Z,1020.20
2019-03-24T10:29:18.391Z,1020.21
2019-03-24T10:30:18.376Z,1020.14
2019-03-24T10:31:18.370Z,1020.11
2019-03-24T10:32:18.372Z,1020.27
2019-03-24T10:33:18.354Z,1020.14
2019-03-24T10:34:18.349Z,1020.02
2019-03-24T10:35:18.323Z,1020.03
2019-03-24T10:36:18.313Z,1019.99
2019-03-24T10:37:18.355Z,1020.02
2019-03-24T10:38:18.294Z,1020.10
2019-03-24T10:39:18.283Z,1019.99
2019-03-24T10:40:28.123Z,1020.07
2019-03-24T10:41:19.263Z,1020.12
2019-03-24T10:42:18.255Z,1020.13
2019-03-24T10:43:18.259Z,1020.10
2019-03-24T10:44:18.228Z,1020.05
2019-03-24T10:45:18.222Z,1020.16
2019-03-24T10:46:18.212Z,1020.06
2019-03-24T10:47:18.196Z,1020.01
2019-03-24T10:48:18.236Z,1020.15
2019-03-24T10:49:24.763Z,1020.13
2019-03-24T10:50:19.169Z,1020.15
2019-03-24T10:51:18.161Z,1020.09
2019-03-24T10:52:18.149Z,1020.10
2019-03-24T10:53:18.144Z,1020.10
2019-03-24T10:54:18.137Z,1020.06
2019-03-24T10:55:18.117Z,1020.04
2019-03-24T10:56:18.103Z,1020.03
2019-03-24T10:57:18.098Z,1020.05
2019-03-24T10:58:18.082Z,1019.92
2019-03-24T10:59:18.103Z,1019.83
2019-03-24T11:00:18.060Z,1019.96
2019-03-24T11:01:18.050Z,1019.96
2019-03-24T11:02:18.056Z,1019.95
2019-03-24T11:03:18.033Z,1019.88
2019-03-24T11:04:18.020Z,1019.85
2019-03-24T11:05:18.021Z,1019.82
2019-03-24T11:06:17.998Z,1019.79
2019-03-24T11:07:17.992Z,1019.73
2019-03-24T11:08:18.074Z,1019.71
2019-03-24T11:09:17.987Z,1019.56
2019-03-24T11:10:17.999Z,1019.62
2019-03-24T11:11:17.953Z,1019.66
2019-03-24T11:12:17.939Z,1019.62
2019-03-24T11:13:17.930Z,1019.63
2019-03-24T11:14:17.918Z,1019.63
2019-03-24T11:15:17.910Z,1019.45
2019-03-24T11:16:17.906Z,1019.59
2019-03-24T11:17:17.889Z,1019.46
2019-03-24T11:18:17.884Z,1019.49
2019-03-24T11:19:17.907Z,1019.46
2019-03-24T11:20:17.856Z,1019.49
2019-03-24T11:21:17.862Z,1019.55
2019-03-24T11:22:17.845Z,1019.57
2019-03-24T11:23:17.826Z,1019.58
2019-03-24T11:24:17.814Z,1019.53
2019-03-24T11:25:17.808Z,1019.41
2019-03-24T11:26:17.814Z,1019.37
2019-03-24T11:27:17.789Z,1019.34
2019-03-24T11:28:19.267Z,1019.36
2019-03-24T11:29:17.763Z,1019.39
2019-03-24T11:30:17.757Z,1019.39
2019-03-24T11:31:17.790Z,1019.43
2019-03-24T11:32:17.737Z,1019.31
2019-03-24T11:33:17.730Z,1019.31
2019-03-24T11:34:17.718Z,1019.24
2019-03-24T11:35:17.767Z,1019.22
2019-03-24T11:36:17.700Z,1019.12
2019-03-24T11:37:17.706Z,1019.11
2019-03-24T11:38:17.674Z,1019.12
2019-03-24T11:39:17.672Z,1019.13
2019-03-24T11:40:17.657Z,1019.11
2019-03-24T11:41:17.643Z,1019.06
2019-03-24T11:42:17.640Z,1019.07
2019-03-24T11:43:17.695Z,1019.01
2019-03-24T11:44:17.614Z,1018.96
2019-03-24T11:45:17.601Z,1018.97
2019-03-24T11:46:17.591Z,1018.95
2019-03-24T11:47:26.258Z,1018.98
2019-03-24T11:48:18.582Z,1019.08
2019-03-24T11:49:17.648Z,1018.99
2019-03-24T11:50:17.549Z,1018.98
2019-03-24T11:51:17.539Z,1018.94
2019-03-24T11:52:17.537Z,1018.98
2019-03-24T11:53:17.516Z,1018.95
2019-03-24T11:54:17.514Z,1018.98
2019-03-24T11:56:26.280Z,1018.95
2019-03-24T11:57:26.265Z,1018.98
2019-03-24T11:58:26.250Z,1018.97
2019-03-24T11:59:26.234Z,1018.98
2019-03-24T12:00:26.222Z,1018.96
2019-03-24T12:01:26.218Z,1018.86
2019-03-24T12:02:26.211Z,1018.91
2019-03-24T12:03:26.203Z,1018.88
2019-03-24T12:04:26.190Z,1018.95
2019-03-24T12:05:26.177Z,1018.84
2019-03-24T12:06:26.157Z,1018.87
2019-03-24T12:07:26.151Z,1018.77